Time;durP1;ratioP1;P1;durP2;ratioP2;P2;SDS_P1;SDS_P2;PMS_P1;PMS_P2;Temp;Humidity;BMP_temperature;BMP_pressure;BME280_temperature;BME280_humidity;BME280_pressure;Samples;Min_cycle;Max_cycle;Signal;HPM_P1;HPM_P2
2022/06/13 00:00:14;;;;;;;20.02;16.33;;;16.50;74.60;;;;;;6118596;23;95566;-39
2022/06/13 00:02:47;;;;;;;21.33;16.40;;;16.50;74.60;;;;;;6111436;23;95284;-39
2022/06/13 00:05:19;;;;;;;17.67;14.30;;;16.50;74.60;;;;;;6114559;23;95801;-40
2022/06/13 00:07:55;;;;;;;16.10;13.98;;;16.60;74.70;;;;;;6137308;22;95709;-39
2022/06/13 00:10:27;;;;;;;18.10;14.30;;;16.60;74.70;;;;;;6146966;22;95155;-39
2022/06/13 00:12:58;;;;;;;19.23;13.63;;;16.60;74.60;;;;;;6145333;22;95653;-39
2022/06/13 00:15:29;;;;;;;13.18;11.75;;;16.60;74.60;;;;;;6139965;22;96305;-39
2022/06/13 00:18:03;;;;;;;14.05;11.05;;;16.60;74.60;;;;;;6142453;22;102209;-39
2022/06/13 00:20:33;;;;;;;;;;;16.70;74.70;;;;;;6146905;22;95395;-39
2022/06/13 00:23:05;;;;;;;11.68;10.35;;;16.60;74.70;;;;;;6148389;22;95857;-40
2022/06/13 00:25:37;;;;;;;11.93;9.73;;;16.70;74.80;;;;;;6144803;22;96262;-39
2022/06/13 00:28:08;;;;;;;;;;;16.70;74.80;;;;;;6145876;22;95708;-39
2022/06/13 00:30:40;;;;;;;9.57;7.97;;;16.70;74.80;;;;;;6141158;22;95658;-39
2022/06/13 00:33:13;;;;;;;10.27;8.55;;;16.70;74.80;;;;;;6146265;22;95645;-39
2022/06/13 00:35:42;;;;;;;;;;;16.80;74.80;;;;;;6146045;22;96323;-39
2022/06/13 00:38:14;;;;;;;9.48;7.53;;;16.80;71.50;;;;;;6147991;22;95689;-39
2022/06/13 00:40:44;;;;;;;8.48;7.28;;;16.80;74.90;;;;;;6146874;22;95827;-39
2022/06/13 00:43:17;;;;;;;8.05;6.90;;;16.80;74.80;;;;;;6146839;22;95220;-39
2022/06/13 00:45:50;;;;;;;9.93;6.60;;;16.90;74.90;;;;;;6142275;22;95864;-39
2022/06/13 00:48:28;;;;;;;7.03;6.32;;;16.80;74.90;;;;;;6147661;22;95485;-39
2022/06/13 00:51:02;;;;;;;9.55;7.13;;;16.90;75.10;;;;;;6147507;22;95574;-39
2022/06/13 00:53:36;;;;;;;7.28;6.18;;;17.00;75.40;;;;;;6147126;22;95705;-39
2022/06/13 00:56:15;;;;;;;6.32;5.50;;;17.00;75.30;;;;;;6147776;22;95970;-39
2022/06/13 00:58:58;;;;;;;9.00;6.28;;;17.00;75.20;;;;;;6146410;22;95565;-39
2022/06/13 01:01:32;;;;;;;8.75;6.47;;;17.10;75.20;;;;;;6138887;22;97974;-39
2022/06/13 01:04:06;;;;;;;10.73;6.63;;;17.10;75.20;;;;;;6147995;22;95250;-39
2022/06/13 01:06:50;;;;;;;7.38;6.40;;;17.10;75.90;;;;;;6140542;22;96322;-39
2022/06/13 01:11:16;;;;;;;8.38;5.90;;;17.10;75.30;;;;;;6115918;23;95214;-39
2022/06/13 01:12:15;;;;;;;10.88;6.53;;;17.20;75.20;;;;;;6114907;23;95562;-39
2022/06/13 01:15:14;;;;;;;7.05;5.80;;;17.20;75.00;;;;;;6117544;23;95634;-39
2022/06/13 01:17:54;;;;;;;6.80;5.65;;;17.20;74.80;;;;;;6111991;23;98654;-39
2022/06/13 01:20:36;;;;;;;8.65;5.30;;;17.20;74.80;;;;;;6116465;23;95286;-39
2022/06/13 01:23:35;;;;;;;5.95;4.82;;;17.30;74.80;;;;;;6116765;23;95718;-39
2022/06/13 01:26:40;;;;;;;6.82;4.95;;;17.30;74.70;;;;;;6119107;23;95296;-39
2022/06/13 01:29:20;;;;;;;6.55;5.25;;;17.40;74.60;;;;;;6119592;23;95962;-39
2022/06/13 01:32:38;;;;;;;8.80;5.75;;;17.40;74.50;;;;;;6113224;23;95849;-39
2022/06/13 01:35:41;;;;;;;6.82;5.30;;;17.40;74.40;;;;;;6094139;23;95878;-39
2022/06/13 01:38:51;;;;;;;7.80;5.07;;;17.40;74.40;;;;;;6120691;23;95685;-39
2022/06/13 01:41:54;;;;;;;6.05;4.30;;;17.50;74.30;;;;;;6055982;23;95673;-39
2022/06/13 01:44:34;;;;;;;5.60;4.30;;;17.50;74.20;;;;;;6119866;23;95738;-39
2022/06/13 01:47:28;;;;;;;6.18;4.47;;;17.50;74.10;;;;;;6113289;23;95383;-39
2022/06/13 01:50:20;;;;;;;4.85;4.03;;;17.60;74.10;;;;;;6121618;23;95339;-39
2022/06/13 01:53:08;;;;;;;;;;;17.60;73.90;;;;;;6120994;23;95809;-39
2022/06/13 01:55:47;;;;;;;6.97;4.70;;;17.60;73.80;;;;;;6123015;23;95759;-39
2022/06/13 01:58:48;;;;;;;5.75;4.25;;;17.60;73.70;;;;;;6120237;23;95814;-39
2022/06/13 02:01:43;;;;;;;5.75;3.80;;;17.60;73.60;;;;;;6112144;23;96514;-39
2022/06/13 02:04:36;;;;;;;;;;;17.70;73.50;;;;;;6121027;23;95881;-39
2022/06/13 02:07:39;;;;;;;6.13;4.28;;;17.70;73.40;;;;;;6119729;22;96257;-39
2022/06/13 02:10:38;;;;;;;6.93;5.18;;;17.70;73.30;;;;;;6138429;22;95299;-39
2022/06/13 02:13:14;;;;;;;6.07;3.58;;;17.70;73.20;;;;;;6150460;22;95241;-39
2022/06/13 02:15:50;;;;;;;7.18;4.18;;;17.70;73.20;;;;;;6142034;22;95806;-39
2022/06/13 02:18:34;;;;;;;5.10;4.05;;;17.70;73.10;;;;;;6148760;22;95835;-39
2022/06/13 02:21:10;;;;;;;8.10;3.80;;;17.80;73.10;;;;;;6149716;22;95537;-39
2022/06/13 02:23:52;;;;;;;7.93;4.72;;;17.80;73.10;;;;;;6150493;22;95369;-39
2022/06/13 02:26:29;;;;;;;6.18;4.22;;;17.80;72.90;;;;;;6148887;22;95927;-39
2022/06/13 02:29:08;;;;;;;4.85;3.65;;;17.80;72.90;;;;;;6149631;22;95803;-39
2022/06/13 02:31:54;;;;;;;6.00;3.40;;;17.80;72.80;;;;;;6138434;22;95818;-39
2022/06/13 02:34:33;;;;;;;5.18;3.75;;;17.80;73.40;;;;;;6149280;22;95958;-39
2022/06/13 02:37:20;;;;;;;5.18;3.55;;;17.80;72.70;;;;;;6147224;22;96011;-39
2022/06/13 02:40:15;;;;;;;5.55;3.92;;;17.80;72.70;;;;;;6147455;22;95534;-39
2022/06/13 02:43:04;;;;;;;3.15;2.63;;;17.90;72.80;;;;;;6148184;22;95516;-39
2022/06/13 02:46:06;;;;;;;3.60;3.05;;;17.80;72.60;;;;;;6113786;22;95796;-39
2022/06/13 02:49:11;;;;;;;3.25;2.85;;;17.90;72.60;;;;;;6148378;22;95854;-39
2022/06/13 02:51:53;;;;;;;3.28;2.83;;;17.90;72.60;;;;;;6138327;22;95597;-39
2022/06/13 02:54:42;;;;;;;4.25;2.67;;;17.90;72.40;;;;;;6148580;22;95629;-40
2022/06/13 02:57:46;;;;;;;3.42;2.55;;;17.90;72.40;;;;;;6149126;22;95201;-39
2022/06/13 03:00:23;;;;;;;2.97;2.58;;;17.90;72.40;;;;;;6141748;22;96331;-39
2022/06/13 03:03:20;;;;;;;2.72;2.30;;;18.00;72.40;;;;;;6147540;22;101769;-39
2022/06/13 03:06:10;;;;;;;3.10;2.33;;;18.00;72.40;;;;;;6147281;22;95477;-39
2022/06/13 03:08:55;;;;;;;3.00;2.30;;;18.00;73.00;;;;;;6148113;22;95924;-39
2022/06/13 03:12:22;;;;;;;2.60;2.22;;;18.00;72.40;;;;;;6147065;22;96919;-39
2022/06/13 03:15:06;;;;;;;3.80;2.65;;;18.00;72.30;;;;;;6143062;22;95938;-39
2022/06/13 03:17:47;;;;;;;4.78;2.58;;;18.00;72.30;;;;;;6141553;22;95832;-39
2022/06/13 03:20:28;;;;;;;2.72;2.30;;;18.10;72.30;;;;;;6148154;22;95496;-39
2022/06/13 03:23:05;;;;;;;4.35;2.38;;;18.10;72.20;;;;;;6146567;22;95999;-39
2022/06/13 03:25:52;;;;;;;4.55;2.05;;;18.10;72.20;;;;;;6147011;22;95773;-39
2022/06/13 03:28:29;;;;;;;2.55;2.03;;;18.10;72.00;;;;;;6147606;22;95642;-39
2022/06/13 03:31:22;;;;;;;4.05;2.53;;;18.20;72.00;;;;;;6142455;22;95665;-39
2022/06/13 03:34:00;;;;;;;4.13;2.33;;;18.10;71.90;;;;;;6147645;22;95874;-39
2022/06/13 03:36:58;;;;;;;3.75;2.55;;;18.10;71.80;;;;;;6147402;22;95770;-39
2022/06/13 03:39:44;;;;;;;3.25;2.20;;;18.20;71.80;;;;;;6146947;22;95167;-39
2022/06/13 03:42:24;;;;;;;2.67;2.00;;;18.20;71.80;;;;;;6147498;22;95597;-39
2022/06/13 03:45:00;;;;;;;2.30;1.90;;;18.20;68.40;;;;;;6147275;22;95850;-39
2022/06/13 03:47:34;;;;;;;1.98;1.73;;;18.20;71.60;;;;;;6141849;22;97548;-39
2022/06/13 03:50:22;;;;;;;3.17;1.80;;;18.10;71.60;;;;;;6148802;22;95822;-39
2022/06/13 03:53:22;;;;;;;2.45;2.20;;;18.10;71.50;;;;;;6122878;22;95565;-39
2022/06/13 03:56:20;;;;;;;2.25;1.63;;;18.10;71.50;;;;;;6096494;22;96113;-39
2022/06/13 03:59:04;;;;;;;2.47;2.28;;;18.20;71.50;;;;;;6124683;22;95265;-38
2022/06/13 04:01:54;;;;;;;4.10;2.30;;;18.20;71.50;;;;;;6139365;22;95163;-39
2022/06/13 04:04:40;;;;;;;2.40;1.98;;;18.10;71.40;;;;;;6123138;22;95863;-38
2022/06/13 04:07:14;;;;;;;2.80;2.22;;;18.20;71.40;;;;;;6147543;22;96480;-38
2022/06/13 04:09:50;;;;;;;2.13;1.75;;;18.20;71.40;;;;;;6146875;22;95509;-38
2022/06/13 04:12:56;;;;;;;2.35;2.08;;;18.10;71.20;;;;;;6147530;22;95516;-38
2022/06/13 04:15:36;;;;;;;3.15;1.83;;;18.20;71.30;;;;;;6141564;22;97920;-38
2022/06/13 04:18:27;;;;;;;2.60;1.95;;;18.10;71.20;;;;;;6146248;22;95866;-38
2022/06/13 04:21:40;;;;;;;1.85;1.73;;;18.20;71.40;;;;;;6146517;22;95196;-38
2022/06/13 04:24:17;;;;;;;2.00;1.70;;;18.20;71.60;;;;;;6120762;22;95702;-38
2022/06/13 04:27:05;;;;;;;2.47;1.88;;;18.20;71.60;;;;;;6147831;22;95725;-38
2022/06/13 04:29:40;;;;;;;1.80;1.70;;;18.20;71.60;;;;;;6120182;22;97978;-38
2022/06/13 04:32:19;;;;;;;3.13;2.10;;;18.20;71.50;;;;;;6140884;22;95706;-38
2022/06/13 04:34:53;;;;;;;2.55;1.70;;;18.20;71.50;;;;;;6147387;22;95594;-38
2022/06/13 04:37:26;;;;;;;2.65;1.92;;;18.30;71.50;;;;;;6147011;22;95119;-38
2022/06/13 04:40:02;;;;;;;1.50;1.40;;;18.20;71.40;;;;;;6146569;22;96693;-38
2022/06/13 04:42:38;;;;;;;1.98;1.88;;;18.30;71.40;;;;;;6147355;22;95655;-38
2022/06/13 04:45:25;;;;;;;1.63;1.52;;;18.20;71.40;;;;;;6141710;22;95658;-38
2022/06/13 04:48:06;;;;;;;1.70;1.48;;;18.30;71.40;;;;;;6147942;22;95985;-38
2022/06/13 04:50:42;;;;;;;2.92;1.55;;;18.30;71.40;;;;;;6148394;22;95857;-38
2022/06/13 04:53:40;;;;;;;3.15;1.67;;;18.30;71.40;;;;;;6147621;22;95426;-38
2022/06/13 04:56:12;;;;;;;2.30;1.65;;;18.20;71.30;;;;;;6148327;22;95722;-38
2022/06/13 04:58:48;;;;;;;2.30;1.58;;;18.20;71.20;;;;;;6147207;22;95589;-38
2022/06/13 05:01:32;;;;;;;2.15;1.88;;;18.20;71.20;;;;;;6138646;22;95800;-38
2022/06/13 05:04:09;;;;;;;1.60;1.30;;;18.20;71.20;;;;;;6146547;22;95574;-38
2022/06/13 05:06:45;;;;;;;2.00;1.80;;;18.20;71.20;;;;;;6140267;22;95135;-38
2022/06/13 05:09:47;;;;;;;3.55;1.92;;;18.20;71.70;;;;;;6116751;23;95807;-39
2022/06/13 05:12:39;;;;;;;4.65;4.15;;;18.20;70.90;;;;;;6113267;23;95988;-38
2022/06/13 05:15:33;;;;;;;9.93;6.60;;;18.20;67.40;;;;;;6115915;23;95240;-38
2022/06/13 05:18:13;;;;;;;10.05;6.72;;;18.20;70.70;;;;;;6113541;23;95660;-38
2022/06/13 05:21:31;;;;;;;10.70;6.40;;;18.20;70.80;;;;;;6116731;23;95724;-38
2022/06/13 05:24:15;;;;;;;8.35;5.95;;;18.20;70.60;;;;;;6027478;23;95820;-38
2022/06/13 05:26:47;;;;;;;8.43;6.55;;;18.20;70.60;;;;;;6114435;23;95654;-39
2022/06/13 05:29:20;;;;;;;7.50;5.13;;;18.30;70.60;;;;;;6088542;23;95701;-38
2022/06/13 05:31:53;;;;;;;7.07;5.50;;;18.30;70.60;;;;;;6109135;23;95768;-38
2022/06/13 05:34:38;;;;;;;6.97;5.75;;;18.30;70.50;;;;;;6115197;23;96590;-39
2022/06/13 05:37:13;;;;;;;7.07;4.85;;;18.30;67.10;;;;;;6114705;23;95906;-38
2022/06/13 05:39:44;;;;;;;6.25;4.88;;;18.30;70.00;;;;;;6115886;23;95557;-38
2022/06/13 05:42:15;;;;;;;7.15;4.93;;;18.40;70.50;;;;;;6116680;23;95775;-38
2022/06/13 05:44:46;;;;;;;7.07;4.80;;;18.40;70.50;;;;;;6115437;23;96543;-38
2022/06/13 05:47:19;;;;;;;5.78;4.20;;;18.30;70.70;;;;;;6109144;23;95807;-38
2022/06/13 05:49:52;;;;;;;5.32;4.03;;;18.20;71.50;;;;;;6117746;23;95185;-38
2022/06/13 05:52:22;;;;;;;7.15;4.72;;;18.20;71.10;;;;;;6117835;23;95496;-38
2022/06/13 05:54:53;;;;;;;6.10;4.60;;;18.10;71.40;;;;;;6116400;23;97880;-38
2022/06/13 05:57:27;;;;;;;4.68;4.03;;;18.10;71.50;;;;;;6116511;23;95660;-38
2022/06/13 06:00:07;;;;;;;6.07;4.18;;;18.10;69.30;;;;;;6116125;23;95409;-38
2022/06/13 06:02:39;;;;;;;5.15;4.00;;;18.00;71.90;;;;;;6115051;23;95101;-38
2022/06/13 06:05:14;;;;;;;5.50;4.28;;;18.00;72.00;;;;;;6115256;23;95775;-38
2022/06/13 06:07:49;;;;;;;4.07;3.42;;;17.90;72.10;;;;;;6136224;22;95851;-39
2022/06/13 06:10:26;;;;;;;6.25;4.38;;;17.90;72.30;;;;;;6146076;22;95137;-38
2022/06/13 06:12:56;;;;;;;3.90;3.53;;;17.90;72.50;;;;;;6147369;22;95856;-38
2022/06/13 06:15:27;;;;;;;5.88;4.22;;;17.90;72.60;;;;;;6140081;22;95838;-38
2022/06/13 06:17:59;;;;;;;5.32;4.00;;;17.80;72.60;;;;;;6146617;22;95178;-38
2022/06/13 06:20:29;;;;;;;4.40;3.33;;;17.80;72.90;;;;;;6146388;22;97047;-38
2022/06/13 06:23:00;;;;;;;3.72;3.20;;;17.80;72.90;;;;;;6120513;22;96038;-38
2022/06/13 06:25:35;;;;;;;5.20;3.28;;;17.70;72.80;;;;;;6146801;22;96527;-38
2022/06/13 06:28:07;;;;;;;4.30;3.10;;;17.80;73.10;;;;;;6147111;22;95311;-38
2022/06/13 06:30:39;;;;;;;;;;;17.80;73.10;;;;;;6140385;22;96215;-38
2022/06/13 06:33:11;;;;;;;3.50;2.40;;;17.90;73.10;;;;;;6149199;22;95226;-39
2022/06/13 06:35:43;;;;;;;3.45;2.30;;;17.90;73.10;;;;;;6145978;22;95887;-38
2022/06/13 06:38:15;;;;;;;2.75;2.50;;;17.90;73.10;;;;;;6146571;22;95856;-38
2022/06/13 06:40:46;;;;;;;2.97;2.40;;;17.90;73.00;;;;;;6147501;22;95698;-38
2022/06/13 06:43:16;;;;;;;3.97;2.75;;;17.90;73.00;;;;;;6147716;22;95751;-38
2022/06/13 06:45:49;;;;;;;4.32;2.47;;;18.00;73.10;;;;;;6140086;22;96412;-38
2022/06/13 06:48:24;;;;;;;4.30;2.72;;;18.00;72.50;;;;;;6147795;22;95518;-38
2022/06/13 06:50:56;;;;;;;3.17;2.75;;;18.00;73.10;;;;;;6147752;22;95568;-38
2022/06/13 06:59:53;;;;;;;5.20;3.55;;;18.00;73.00;;;;;;6147101;22;95358;-38
2022/06/13 07:02:05;;;;;;;5.03;3.90;;;18.00;73.00;;;;;;6139340;22;95624;-38
2022/06/13 07:04:35;;;;;;;4.30;3.17;;;18.00;73.00;;;;;;6147185;22;95612;-38
2022/06/13 07:07:06;;;;;;;;;;;18.00;73.00;;;;;;6146841;22;95767;-38
2022/06/13 07:09:38;;;;;;;4.77;3.23;;;18.00;73.60;;;;;;6146895;22;95970;-38
2022/06/13 07:12:11;;;;;;;5.00;3.72;;;18.00;73.20;;;;;;6146409;22;95697;-38
2022/06/13 07:14:44;;;;;;;4.97;3.25;;;18.00;73.30;;;;;;6147262;22;95760;-38
2022/06/13 07:17:14;;;;;;;4.50;3.20;;;17.90;73.40;;;;;;6142704;22;97479;-38
2022/06/13 07:19:45;;;;;;;4.78;3.20;;;17.90;73.50;;;;;;6146656;22;96318;-38
2022/06/13 07:22:20;;;;;;;6.03;3.67;;;17.80;73.60;;;;;;6147227;22;95735;-38
2022/06/13 07:24:52;;;;;;;4.05;3.10;;;17.80;73.80;;;;;;6147093;22;95487;-38
2022/06/13 07:27:23;;;;;;;4.90;3.50;;;17.80;73.90;;;;;;6146439;22;95939;-39
2022/06/13 07:29:58;;;;;;;5.47;3.65;;;17.80;70.50;;;;;;6120273;22;95912;-37
2022/06/13 07:32:29;;;;;;;4.78;3.35;;;17.70;73.90;;;;;;6108358;22;96407;-40
2022/06/13 07:35:02;;;;;;;3.60;2.38;;;17.70;74.10;;;;;;6143127;22;95898;-39
2022/06/13 07:40:24;;;;;;;4.07;3.13;;;17.70;73.90;;;;;;6141672;22;95662;-39
2022/06/13 07:42:59;;;;;;;5.97;3.42;;;17.70;73.80;;;;;;6141387;22;95413;-39
2022/06/13 07:45:34;;;;;;;4.30;3.08;;;17.80;73.80;;;;;;6136116;22;95297;-40
2022/06/13 07:48:25;;;;;;;3.75;3.00;;;17.70;73.90;;;;;;6145039;22;96361;-39
2022/06/13 07:51:02;;;;;;;5.55;3.70;;;17.70;74.00;;;;;;6144781;22;95740;-39
2022/06/13 07:53:34;;;;;;;5.03;4.15;;;17.70;74.10;;;;;;6144777;22;95519;-39
2022/06/13 07:56:30;;;;;;;6.78;4.47;;;17.70;74.10;;;;;;6144829;22;95515;-39
2022/06/13 07:59:05;;;;;;;5.97;4.55;;;17.70;74.10;;;;;;6143069;22;95869;-39
2022/06/13 08:01:38;;;;;;;5.30;4.05;;;17.60;74.10;;;;;;6135605;22;95696;-39
2022/06/13 08:04:09;;;;;;;7.35;4.85;;;17.60;74.20;;;;;;6144538;22;95597;-39
2022/06/13 08:06:42;;;;;;;7.28;4.90;;;17.60;74.20;;;;;;6141019;22;95946;-40
2022/06/13 08:09:13;;;;;;;8.00;5.50;;;17.60;74.20;;;;;;6143103;22;95824;-39
2022/06/13 08:11:50;;;;;;;6.00;5.28;;;17.60;74.30;;;;;;6143384;22;95272;-39
2022/06/13 08:14:21;;;;;;;8.25;5.28;;;17.60;74.40;;;;;;6143882;22;95749;-39
2022/06/13 08:16:53;;;;;;;8.13;5.55;;;17.60;74.30;;;;;;6108912;22;95369;-39
2022/06/13 08:19:24;;;;;;;8.07;5.93;;;17.50;74.40;;;;;;6143234;22;96872;-39
2022/06/13 08:21:56;;;;;;;8.52;6.20;;;17.50;74.30;;;;;;6143370;22;95621;-39
2022/06/13 08:24:28;;;;;;;11.10;6.65;;;17.50;74.30;;;;;;6143754;22;95644;-39
2022/06/13 08:26:59;;;;;;;11.90;7.30;;;17.50;74.30;;;;;;6143923;22;95626;-40
2022/06/13 08:29:33;;;;;;;10.50;7.07;;;17.50;74.40;;;;;;6142691;22;95806;-39
2022/06/13 08:32:06;;;;;;;14.38;8.48;;;17.50;74.50;;;;;;6135667;22;96546;-40
2022/06/13 08:34:39;;;;;;;13.50;8.00;;;17.60;74.50;;;;;;6142686;22;95792;-40
2022/06/13 08:37:10;;;;;;;11.75;8.45;;;17.60;74.20;;;;;;6144204;22;95347;-40
2022/06/13 08:39:41;;;;;;;16.15;10.13;;;17.60;71.50;;;;;;6143258;22;96037;-40
2022/06/13 08:42:37;;;;;;;15.93;8.85;;;17.60;74.20;;;;;;6142198;22;95464;-40
2022/06/13 08:45:10;;;;;;;11.93;8.32;;;17.70;74.20;;;;;;6144023;22;95625;-40
2022/06/13 08:48:03;;;;;;;14.80;9.20;;;17.70;74.00;;;;;;6144277;22;95542;-40
2022/06/13 08:50:38;;;;;;;11.90;8.35;;;17.70;73.90;;;;;;6144216;22;96276;-40
2022/06/13 08:53:23;;;;;;;12.30;8.18;;;17.70;73.80;;;;;;6143826;22;96093;-40
2022/06/13 08:56:08;;;;;;;12.82;8.68;;;17.70;73.80;;;;;;6144400;22;95746;-40
2022/06/13 08:58:53;;;;;;;13.00;8.55;;;17.70;73.70;;;;;;6143744;22;95895;-40
2022/06/13 09:01:41;;;;;;;13.70;9.18;;;17.70;73.60;;;;;;6136039;22;97592;-40
2022/06/13 09:04:22;;;;;;;14.13;8.80;;;17.70;73.60;;;;;;6142833;22;95528;-40
2022/06/13 09:07:19;;;;;;;13.10;8.80;;;17.70;73.50;;;;;;6133843;22;95451;-40
2022/06/13 09:10:05;;;;;;;12.60;8.90;;;17.70;73.40;;;;;;6104545;23;95587;-40
2022/06/13 09:13:13;;;;;;;10.18;7.57;;;17.70;73.30;;;;;;6113557;23;95791;-40
2022/06/13 09:16:15;;;;;;;11.52;8.00;;;17.70;73.30;;;;;;6106251;23;95866;-40
2022/06/13 09:18:59;;;;;;;9.48;7.40;;;17.80;67.40;;;;;;6113909;23;95523;-40
2022/06/13 09:21:42;;;;;;;13.38;9.15;;;17.70;73.30;;;;;;6113857;23;95724;-40
2022/06/13 09:24:41;;;;;;;9.40;6.93;;;17.70;73.20;;;;;;6112616;23;96352;-40
2022/06/13 09:27:37;;;;;;;14.10;8.25;;;17.70;73.10;;;;;;6112331;23;95587;-40
2022/06/13 09:30:14;;;;;;;9.48;7.35;;;17.70;73.20;;;;;;6110392;23;95649;-40
2022/06/13 09:32:54;;;;;;;9.82;6.97;;;17.80;73.10;;;;;;6108735;23;95977;-40
2022/06/13 09:35:29;;;;;;;12.63;8.98;;;17.80;73.10;;;;;;6112267;23;95782;-40
2022/06/13 09:38:23;;;;;;;12.55;8.25;;;17.80;73.00;;;;;;6112320;23;95842;-39
2022/06/13 09:41:22;;;;;;;11.27;8.20;;;17.80;73.00;;;;;;6112183;23;96025;-39
2022/06/13 09:44:31;;;;;;;11.02;7.78;;;17.80;72.90;;;;;;6112846;23;95830;-40
2022/06/13 09:47:39;;;;;;;12.95;9.52;;;17.80;72.80;;;;;;6110107;23;96004;-40
2022/06/13 09:50:20;;;;;;;12.88;7.95;;;17.80;72.80;;;;;;6115123;23;95635;-41
2022/06/13 09:53:12;;;;;;;10.38;7.35;;;17.80;72.90;;;;;;6114223;23;95921;-40
2022/06/13 09:56:13;;;;;;;12.40;8.20;;;17.80;72.80;;;;;;6114894;23;95428;-40
2022/06/13 09:59:17;;;;;;;11.03;8.13;;;17.80;72.80;;;;;;6113048;23;96518;-40
2022/06/13 10:02:31;;;;;;;12.88;8.50;;;17.80;72.70;;;;;;6105523;23;97390;-39
2022/06/13 10:05:07;;;;;;;12.23;8.85;;;17.80;72.60;;;;;;6071334;23;96229;-40
2022/06/13 10:07:56;;;;;;;12.07;8.18;;;17.80;72.60;;;;;;6133036;22;95666;-40
2022/06/13 10:10:55;;;;;;;9.38;6.82;;;17.80;72.60;;;;;;6141255;22;95856;-40
2022/06/13 10:13:52;;;;;;;9.35;7.18;;;17.80;72.30;;;;;;6143433;22;95762;-40
2022/06/13 10:16:41;;;;;;;10.60;7.80;;;17.80;72.30;;;;;;6136730;22;95236;-40
2022/06/13 10:19:31;;;;;;;9.55;7.70;;;17.80;72.30;;;;;;6143952;22;95760;-40
2022/06/13 10:22:09;;;;;;;8.30;6.80;;;17.80;72.20;;;;;;6143445;22;95831;-40
2022/06/13 10:25:11;;;;;;;8.88;6.50;;;17.80;69.20;;;;;;6143389;22;95625;-39
2022/06/13 10:27:58;;;;;;;8.50;6.82;;;17.80;72.10;;;;;;6144080;22;95792;-39
2022/06/13 10:30:53;;;;;;;10.50;6.50;;;17.80;71.90;;;;;;6139350;22;95693;-40
2022/06/13 10:33:28;;;;;;;9.63;6.07;;;17.80;71.80;;;;;;6139768;22;102404;-40
2022/06/13 10:36:10;;;;;;;8.40;6.43;;;17.80;71.70;;;;;;6142561;22;95848;-39
2022/06/13 10:39:15;;;;;;;8.55;6.43;;;17.80;71.70;;;;;;6143500;22;95670;-39
2022/06/13 10:41:52;;;;;;;9.27;6.82;;;17.80;71.80;;;;;;6110375;22;95713;-39
2022/06/13 10:44:24;;;;;;;8.63;6.60;;;17.80;71.60;;;;;;6143299;22;95838;-40
2022/06/13 10:47:25;;;;;;;9.05;6.50;;;17.80;71.60;;;;;;6135557;22;95773;-39
2022/06/13 10:50:02;;;;;;;9.88;7.30;;;17.80;71.50;;;;;;6136877;22;95686;-39
2022/06/13 10:52:43;;;;;;;7.75;6.30;;;17.70;71.50;;;;;;6143612;22;95933;-40
2022/06/13 10:55:20;;;;;;;7.72;6.05;;;17.80;71.50;;;;;;6142775;22;95958;-40
2022/06/13 10:58:02;;;;;;;8.63;6.15;;;17.80;71.40;;;;;;6116263;22;95395;-41
2022/06/13 11:00:33;;;;;;;6.63;5.20;;;17.80;71.30;;;;;;6134930;22;96903;-40
2022/06/13 11:03:12;;;;;;;8.40;6.47;;;17.80;71.30;;;;;;6142595;22;95963;-40
2022/06/13 11:06:06;;;;;;;7.82;5.82;;;17.70;71.20;;;;;;6142033;22;95875;-40
2022/06/13 11:08:38;;;;;;;9.10;6.50;;;17.80;68.40;;;;;;6141986;22;95848;-40
2022/06/13 11:11:17;;;;;;;;;;;17.70;71.10;;;;;;6143749;22;95736;-40
2022/06/13 11:13:58;;;;;;;7.75;5.70;;;17.70;71.10;;;;;;6144544;22;95779;-40
2022/06/13 11:22:38;;;;;;;6.80;5.93;;;17.70;71.00;;;;;;6142416;22;95765;-40
2022/06/13 11:25:37;;;;;;;6.28;5.38;;;17.70;70.80;;;;;;6142203;22;95618;-40
2022/06/13 11:28:21;;;;;;;6.95;5.32;;;17.70;71.00;;;;;;6141068;22;97777;-40
2022/06/13 11:31:16;;;;;;;6.10;5.03;;;17.70;70.90;;;;;;6135801;22;95463;-41
2022/06/13 11:33:48;;;;;;;7.30;5.82;;;17.70;70.30;;;;;;6141347;22;95701;-40
2022/06/13 11:36:27;;;;;;;8.82;6.18;;;17.70;70.80;;;;;;6142795;22;95786;-40
2022/06/13 11:39:00;;;;;;;6.35;5.03;;;17.70;70.80;;;;;;6142068;22;95978;-40
2022/06/13 11:41:45;;;;;;;6.35;5.60;;;17.70;67.90;;;;;;6142345;22;95581;-41
2022/06/13 11:44:22;;;;;;;6.57;5.68;;;17.60;70.60;;;;;;6115235;22;95777;-42
2022/06/13 11:47:01;;;;;;;9.15;6.80;;;17.60;71.00;;;;;;6136234;22;95679;-42
2022/06/13 11:49:33;;;;;;;8.82;6.53;;;17.70;71.10;;;;;;6143297;22;95790;-40
2022/06/13 11:52:07;;;;;;;9.52;6.93;;;17.70;68.50;;;;;;6117688;22;96391;-40
2022/06/13 11:54:55;;;;;;;11.80;6.80;;;17.70;71.30;;;;;;6143654;22;95722;-42
2022/06/13 11:57:36;;;;;;;10.38;7.38;;;17.70;71.40;;;;;;6143117;22;95770;-40
2022/06/13 12:00:16;;;;;;;8.88;6.70;;;17.70;67.90;;;;;;6135276;22;98643;-40
2022/06/13 12:02:53;;;;;;;8.75;6.22;;;17.70;71.40;;;;;;6141724;22;102510;-40
2022/06/13 12:05:35;;;;;;;9.32;7.00;;;17.70;71.30;;;;;;6143197;22;95802;-40
2022/06/13 12:08:19;;;;;;;7.60;6.72;;;17.60;71.20;;;;;;6142983;22;95733;-40
2022/06/13 12:11:04;;;;;;;8.15;6.88;;;17.60;71.20;;;;;;6142515;22;95860;-41
2022/06/13 12:13:39;;;;;;;8.38;7.18;;;17.60;71.20;;;;;;6142024;22;95755;-40
2022/06/13 12:16:37;;;;;;;6.68;5.97;;;17.60;71.20;;;;;;6134623;22;95564;-40
2022/06/13 12:19:26;;;;;;;11.27;7.43;;;17.50;71.10;;;;;;6142989;22;95722;-40
2022/06/13 12:22:02;;;;;;;8.80;7.00;;;17.50;71.10;;;;;;6141883;22;96429;-40
2022/06/13 12:24:48;;;;;;;8.40;6.43;;;17.50;71.50;;;;;;6114772;22;96027;-41
2022/06/13 12:27:55;;;;;;;7.85;7.10;;;17.50;71.10;;;;;;6140130;22;95499;-40
2022/06/13 12:30:36;;;;;;;10.05;7.70;;;17.50;68.40;;;;;;6135919;22;97986;-40
2022/06/13 12:33:33;;;;;;;9.43;7.20;;;17.50;71.00;;;;;;6141350;22;103096;-40
2022/06/13 12:36:22;;;;;;;7.63;6.40;;;17.40;70.90;;;;;;6142011;22;95646;-40
2022/06/13 12:39:17;;;;;;;8.75;6.88;;;17.40;70.90;;;;;;6141820;22;95522;-40
2022/06/13 12:42:12;;;;;;;9.05;7.13;;;17.40;67.40;;;;;;6142174;22;95794;-40
2022/06/13 12:45:24;;;;;;;7.80;7.00;;;17.40;70.90;;;;;;6142750;22;96594;-41
2022/06/13 12:48:27;;;;;;;8.23;6.78;;;17.40;70.80;;;;;;6141886;22;95732;-40
2022/06/13 12:51:40;;;;;;;8.77;7.03;;;17.30;71.30;;;;;;6144265;22;95917;-39
2022/06/13 12:54:45;;;;;;;8.50;6.55;;;17.30;71.20;;;;;;6137273;22;95553;-41
2022/06/13 12:57:33;;;;;;;9.00;6.93;;;17.40;71.10;;;;;;6116325;22;96100;-40
2022/06/13 13:00:17;;;;;;;8.10;6.30;;;17.40;71.20;;;;;;6135283;22;97815;-43
2022/06/13 13:02:56;;;;;;;9.82;7.13;;;17.40;71.00;;;;;;6141925;22;95613;-42
2022/06/13 13:06:02;;;;;;;7.38;6.32;;;17.40;70.90;;;;;;6143238;22;95894;-41
2022/06/13 13:09:27;;;;;;;10.38;7.20;;;17.40;70.80;;;;;;6141416;22;96441;-41
2022/06/13 13:12:02;;;;;;;8.95;6.47;;;17.40;70.70;;;;;;6117023;22;95566;-41
2022/06/13 13:15:11;;;;;;;7.63;6.65;;;17.40;70.60;;;;;;6142135;22;95545;-41
2022/06/13 13:17:51;;;;;;;8.07;6.82;;;17.40;70.50;;;;;;6142071;22;95276;-41
2022/06/13 13:20:42;;;;;;;7.75;6.20;;;17.40;70.40;;;;;;6142233;22;95974;-41
2022/06/13 13:23:40;;;;;;;6.63;5.93;;;17.40;70.40;;;;;;6141956;22;95692;-41
2022/06/13 13:26:47;;;;;;;7.72;6.45;;;17.40;70.30;;;;;;6119307;22;95393;-41
2022/06/13 13:29:36;;;;;;;8.38;7.03;;;17.40;70.30;;;;;;6141997;22;95950;-42
2022/06/13 13:32:27;;;;;;;8.35;5.93;;;17.40;70.20;;;;;;6134746;22;95896;-43
2022/06/13 13:35:29;;;;;;;8.63;6.60;;;17.40;70.10;;;;;;6142126;22;95199;-41
2022/06/13 13:38:12;;;;;;;8.20;6.80;;;17.40;70.10;;;;;;6142201;22;95734;-41
2022/06/13 13:40:54;;;;;;;7.38;6.25;;;17.40;70.10;;;;;;6143060;22;95544;-44
2022/06/13 13:43:52;;;;;;;6.95;6.25;;;17.50;70.40;;;;;;6142001;22;96050;-42
2022/06/13 13:46:47;;;;;;;8.93;6.88;;;17.50;70.40;;;;;;6135701;22;95232;-42
2022/06/13 13:49:40;;;;;;;7.45;6.53;;;17.60;70.40;;;;;;6143254;22;95239;-44
2022/06/13 13:52:25;;;;;;;9.68;6.60;;;17.70;70.30;;;;;;6143937;22;95585;-40
2022/06/13 13:55:01;;;;;;;6.63;5.97;;;17.80;70.10;;;;;;6142210;22;96374;-43
2022/06/13 13:57:48;;;;;;;6.65;5.72;;;17.80;69.90;;;;;;6142926;22;95503;-39
2022/06/13 14:00:48;;;;;;;7.80;6.20;;;17.90;69.80;;;;;;6133912;22;95715;-40
2022/06/13 14:03:57;;;;;;;6.93;6.22;;;18.00;69.70;;;;;;6129835;22;95405;-39
2022/06/13 14:06:44;;;;;;;8.82;6.25;;;18.00;69.50;;;;;;6110865;22;97290;-39
2022/06/13 14:09:20;;;;;;;7.43;6.60;;;18.00;69.40;;;;;;6111954;23;95917;-40
2022/06/13 14:12:10;;;;;;;9.13;8.07;;;18.00;69.20;;;;;;6111873;23;95676;-40
2022/06/13 14:14:50;;;;;;;7.90;7.07;;;18.10;69.10;;;;;;6112706;23;95543;-41
2022/06/13 14:17:31;;;;;;;7.13;6.40;;;18.10;68.70;;;;;;6103894;23;95927;-40
2022/06/13 14:20:08;;;;;;;7.32;6.40;;;18.20;68.50;;;;;;6111866;23;95637;-40
2022/06/13 14:22:47;;;;;;;8.27;6.63;;;18.20;68.80;;;;;;6112612;23;95475;-40